createdAt,value
2022-10-17T00:00:21.750Z,13.50
2022-10-17T00:02:48.329Z,13.52
2022-10-17T00:05:17.374Z,13.54
2022-10-17T00:07:43.729Z,13.56
2022-10-17T00:10:10.478Z,13.61
2022-10-17T00:12:40.144Z,13.52
2022-10-17T00:15:08.486Z,13.58
2022-10-17T00:17:36.297Z,13.65
2022-10-17T00:20:02.683Z,13.75
2022-10-17T00:22:29.767Z,13.71
2022-10-17T00:24:56.469Z,13.69
2022-10-17T00:27:22.809Z,13.73
2022-10-17T00:29:50.918Z,13.80
2022-10-17T00:32:21.984Z,13.88
2022-10-17T00:34:50.646Z,13.89
2022-10-17T00:37:16.987Z,13.83
2022-10-17T00:39:44.822Z,13.86
2022-10-17T00:42:12.992Z,13.80
2022-10-17T00:44:39.873Z,13.76
2022-10-17T00:47:06.930Z,13.78
2022-10-17T00:49:34.185Z,13.81
2022-10-17T00:52:01.654Z,13.76
2022-10-17T00:54:31.844Z,13.75
2022-10-17T00:57:03.225Z,13.79
2022-10-17T00:59:30.644Z,13.79
2022-10-17T01:02:02.794Z,13.94
2022-10-17T01:04:29.121Z,14.08
2022-10-17T01:06:56.612Z,14.21
2022-10-17T01:09:23.214Z,14.28
2022-10-17T01:11:58.923Z,14.13
2022-10-17T01:14:32.998Z,14.38
2022-10-17T01:17:02.501Z,14.45
2022-10-17T01:19:34.352Z,14.37
2022-10-17T01:22:08.493Z,14.39
2022-10-17T01:24:41.223Z,14.40
2022-10-17T01:27:19.501Z,14.41
2022-10-17T01:30:05.762Z,14.37
2022-10-17T01:32:44.865Z,14.36
2022-10-17T01:35:14.189Z,14.42
2022-10-17T01:37:45.296Z,14.47
2022-10-17T01:40:14.979Z,14.52
2022-10-17T01:42:44.351Z,14.51
2022-10-17T01:45:13.784Z,14.50
2022-10-17T01:47:40.363Z,14.50
2022-10-17T01:50:08.514Z,14.50
2022-10-17T01:52:38.550Z,14.50
2022-10-17T01:55:07.054Z,14.48
2022-10-17T01:57:34.871Z,14.57
2022-10-17T02:00:02.755Z,14.68
2022-10-17T02:02:29.399Z,14.71
2022-10-17T02:04:56.302Z,14.69
2022-10-17T02:07:22.702Z,14.55
2022-10-17T02:09:50.622Z,14.58
2022-10-17T02:12:17.299Z,14.67
2022-10-17T02:14:46.631Z,14.70
2022-10-17T02:17:19.145Z,14.72
2022-10-17T02:20:01.092Z,14.69
2022-10-17T02:22:27.543Z,14.55
2022-10-17T02:25:06.558Z,14.57
2022-10-17T02:27:51.775Z,14.62
2022-10-17T02:30:24.958Z,14.67
2022-10-17T02:33:12.738Z,14.69
2022-10-17T02:35:40.939Z,14.67
2022-10-17T02:38:09.067Z,14.62
2022-10-17T02:40:35.773Z,14.62
2022-10-17T02:43:06.107Z,14.61
2022-10-17T02:45:38.268Z,14.48
2022-10-17T02:48:23.475Z,14.40
2022-10-17T02:50:58.978Z,14.46
2022-10-17T02:53:27.795Z,14.51
2022-10-17T02:55:55.586Z,14.56
2022-10-17T02:58:25.340Z,14.49
2022-10-17T03:00:51.758Z,14.51
2022-10-17T03:03:22.312Z,14.59
2022-10-17T03:05:48.721Z,14.59
2022-10-17T03:08:16.245Z,14.68
2022-10-17T03:10:42.568Z,14.66
2022-10-17T03:13:12.940Z,14.53
2022-10-17T03:15:39.261Z,14.48
2022-10-17T03:18:06.834Z,14.50
2022-10-17T03:20:34.074Z,14.46
2022-10-17T03:23:00.414Z,14.43
2022-10-17T03:25:27.263Z,14.39
2022-10-17T03:27:53.577Z,14.48
2022-10-17T03:30:23.363Z,14.48
2022-10-17T03:32:49.696Z,14.49
2022-10-17T03:35:16.050Z,14.52
2022-10-17T03:37:43.155Z,14.53
2022-10-17T03:40:10.969Z,14.45
2022-10-17T03:42:40.043Z,14.46
2022-10-17T03:45:07.351Z,14.53
2022-10-17T03:47:35.116Z,14.58
2022-10-17T03:50:01.457Z,14.59
2022-10-17T03:52:30.264Z,14.64
2022-10-17T03:54:56.589Z,14.62
2022-10-17T03:57:22.905Z,14.58
2022-10-17T03:59:52.550Z,14.52
2022-10-17T04:02:18.925Z,14.52
2022-10-17T04:04:47.171Z,14.62
2022-10-17T04:07:13.563Z,14.60
2022-10-17T04:09:40.019Z,14.59
2022-10-17T04:12:06.362Z,14.58
2022-10-17T04:14:36.941Z,14.61
2022-10-17T04:17:04.841Z,14.65
2022-10-17T04:19:31.235Z,14.56
2022-10-17T04:21:57.604Z,14.54
2022-10-17T04:24:25.140Z,14.50
2022-10-17T04:26:51.496Z,14.59
2022-10-17T04:29:19.144Z,14.57
2022-10-17T04:31:45.554Z,14.52
2022-10-17T04:34:14.466Z,14.56
2022-10-17T04:36:43.612Z,14.54
2022-10-17T04:39:10.396Z,14.64
2022-10-17T04:41:39.088Z,14.61
2022-10-17T04:44:05.481Z,14.65
2022-10-17T04:46:33.116Z,14.67
2022-10-17T04:48:59.503Z,14.61
2022-10-17T04:51:26.671Z,14.61
2022-10-17T04:53:55.589Z,14.52
2022-10-17T04:56:22.294Z,14.41
2022-10-17T04:58:49.035Z,14.44
2022-10-17T05:01:16.770Z,14.38
2022-10-17T05:03:43.172Z,14.43
2022-10-17T05:06:15.420Z,14.45
2022-10-17T05:08:41.748Z,14.42
2022-10-17T05:11:22.835Z,14.50
2022-10-17T05:13:54.166Z,14.45
2022-10-17T05:16:21.002Z,14.48
2022-10-17T05:18:53.006Z,14.47
2022-10-17T05:21:19.723Z,14.57
2022-10-17T05:23:47.139Z,14.56
2022-10-17T05:26:14.271Z,14.57
2022-10-17T05:28:41.003Z,14.54
2022-10-17T05:31:08.684Z,14.60
2022-10-17T05:33:36.389Z,14.60
2022-10-17T05:36:02.727Z,14.66
2022-10-17T05:38:31.493Z,14.60
2022-10-17T05:40:58.812Z,14.56
2022-10-17T05:43:26.444Z,14.52
2022-10-17T05:46:00.511Z,14.51
2022-10-17T05:48:28.607Z,14.54
2022-10-17T05:51:03.068Z,14.55
2022-10-17T05:53:33.375Z,14.49
2022-10-17T05:56:00.138Z,14.57
2022-10-17T06:01:15.128Z,14.72
2022-10-17T06:03:42.896Z,14.79
2022-10-17T06:06:13.212Z,14.80
2022-10-17T06:08:39.603Z,14.85
2022-10-17T06:11:10.065Z,14.87
2022-10-17T06:13:37.751Z,14.95
2022-10-17T06:16:04.084Z,14.89
2022-10-17T06:18:30.499Z,14.89
2022-10-17T06:21:04.358Z,14.82
2022-10-17T06:23:31.473Z,14.89
2022-10-17T06:25:58.557Z,14.93
2022-10-17T06:28:25.239Z,14.95
2022-10-17T06:30:51.651Z,14.99
2022-10-17T06:33:18.074Z,15.10
2022-10-17T06:35:45.006Z,15.13
2022-10-17T06:38:11.330Z,15.05
2022-10-17T06:40:37.645Z,15.06
2022-10-17T06:43:05.583Z,15.07
2022-10-17T06:45:31.949Z,15.06
2022-10-17T06:47:59.839Z,15.05
2022-10-17T06:50:27.104Z,15.00
2022-10-17T06:52:53.492Z,15.05
2022-10-17T06:55:22.773Z,15.12
2022-10-17T06:57:49.807Z,15.19
2022-10-17T07:00:16.220Z,15.25
2022-10-17T07:02:44.065Z,15.30
2022-10-17T07:05:13.439Z,15.36
2022-10-17T07:07:43.051Z,15.48
2022-10-17T07:10:12.536Z,15.58
2022-10-17T07:12:39.166Z,15.75
2022-10-17T07:15:06.703Z,15.81
2022-10-17T07:17:34.556Z,15.91
2022-10-17T07:20:01.016Z,15.98
2022-10-17T07:22:27.654Z,15.99
2022-10-17T07:24:54.457Z,16.06
2022-10-17T07:27:21.014Z,16.05
2022-10-17T07:29:47.347Z,16.08
2022-10-17T07:32:16.174Z,16.05
2022-10-17T07:34:43.089Z,16.00
2022-10-17T07:37:10.688Z,16.02
2022-10-17T07:39:40.054Z,16.07
2022-10-17T07:42:07.636Z,16.06
2022-10-17T07:44:35.444Z,16.05
2022-10-17T07:47:02.800Z,16.11
2022-10-17T07:49:31.952Z,16.14
2022-10-17T07:51:58.343Z,16.13
2022-10-17T07:54:28.494Z,16.19
2022-10-17T07:56:54.829Z,16.16
2022-10-17T07:59:21.208Z,16.20
2022-10-17T08:01:47.850Z,16.21
2022-10-17T08:04:16.721Z,16.25
2022-10-17T08:06:43.812Z,16.35
2022-10-17T08:09:10.143Z,16.36
2022-10-17T08:11:37.416Z,16.46
2022-10-17T08:14:04.135Z,16.57
2022-10-17T08:16:30.700Z,16.68
2022-10-17T08:18:57.310Z,16.76
2022-10-17T08:21:23.668Z,16.88
2022-10-17T08:23:53.850Z,16.95
2022-10-17T08:26:20.235Z,16.96
2022-10-17T08:28:47.942Z,16.95
2022-10-17T08:31:18.128Z,17.02
2022-10-17T08:33:44.457Z,17.11
2022-10-17T08:36:12.305Z,17.13
2022-10-17T08:38:43.540Z,17.17
2022-10-17T08:41:14.504Z,17.17
2022-10-17T08:43:47.347Z,17.16
2022-10-17T08:48:47.059Z,17.29
2022-10-17T08:51:18.404Z,17.27
2022-10-17T08:53:50.118Z,17.38
2022-10-17T08:56:49.928Z,17.44
2022-10-17T08:59:13.867Z,17.50
2022-10-17T09:01:40.784Z,17.53
2022-10-17T09:04:13.319Z,17.58
2022-10-17T09:06:40.938Z,17.64
2022-10-17T09:09:10.343Z,17.79
2022-10-17T09:11:41.773Z,17.98
2022-10-17T09:14:17.388Z,18.07
2022-10-17T09:17:13.396Z,18.18
2022-10-17T09:19:44.223Z,18.29
2022-10-17T09:22:19.626Z,18.20
2022-10-17T09:24:48.008Z,18.24
2022-10-17T09:27:23.465Z,18.22
2022-10-17T09:29:50.932Z,18.21
2022-10-17T09:32:23.298Z,18.18
2022-10-17T09:34:49.819Z,18.03
2022-10-17T09:37:20.787Z,18.11
2022-10-17T09:39:47.142Z,18.10
2022-10-17T09:42:15.487Z,18.20
2022-10-17T09:44:52.347Z,18.37
2022-10-17T09:47:26.830Z,18.49
2022-10-17T09:49:57.227Z,18.59
2022-10-17T09:52:47.552Z,18.70
2022-10-17T09:55:17.989Z,18.85
2022-10-17T09:57:54.662Z,18.93
2022-10-17T10:00:23.532Z,19.02
2022-10-17T10:02:50.079Z,19.11
2022-10-17T10:05:17.480Z,19.27
2022-10-17T10:08:00.570Z,19.41
2022-10-17T10:10:28.131Z,19.33
2022-10-17T10:13:05.352Z,19.38
2022-10-17T10:15:38.799Z,19.41
2022-10-17T10:18:25.134Z,19.41
2022-10-17T10:21:03.456Z,19.37
2022-10-17T10:23:31.700Z,19.45
2022-10-17T10:25:58.562Z,19.47
2022-10-17T10:28:31.730Z,19.42
2022-10-17T10:30:58.873Z,19.44
2022-10-17T10:33:26.305Z,19.46
2022-10-17T10:35:56.261Z,19.43
2022-10-17T10:38:22.987Z,19.43
2022-10-17T10:40:55.037Z,19.51
2022-10-17T10:43:27.576Z,19.67
2022-10-17T10:45:53.923Z,19.67
2022-10-17T10:48:24.444Z,19.77
2022-10-17T10:50:50.741Z,19.90
2022-10-17T10:53:36.168Z,20.21
2022-10-17T10:56:03.012Z,20.43
2022-10-17T10:58:44.446Z,20.45
2022-10-17T11:01:19.561Z,20.65
2022-10-17T11:04:09.003Z,20.43
2022-10-17T11:06:36.363Z,20.28
2022-10-17T11:09:06.466Z,20.22
2022-10-17T11:11:33.984Z,20.44
2022-10-17T11:14:16.507Z,20.19
2022-10-17T11:17:05.251Z,20.57
2022-10-17T11:19:44.029Z,20.76
2022-10-17T11:22:49.868Z,21.06
2022-10-17T11:25:28.545Z,21.17
2022-10-17T11:28:03.824Z,21.05
2022-10-17T11:30:40.951Z,21.25
2022-10-17T11:33:08.551Z,21.58
2022-10-17T11:35:46.382Z,21.11
2022-10-17T11:38:18.984Z,20.74
2022-10-17T11:40:46.037Z,20.56
2022-10-17T11:43:17.227Z,20.55
2022-10-17T11:45:46.157Z,20.59
2022-10-17T11:48:13.562Z,20.67
2022-10-17T11:53:44.583Z,20.56
2022-10-17T11:56:12.202Z,20.59
2022-10-17T11:59:03.274Z,20.55
2022-10-17T12:01:38.932Z,20.56
2022-10-17T12:04:13.849Z,20.60
2022-10-17T12:06:57.447Z,20.58
2022-10-17T12:09:44.931Z,20.72
2022-10-17T12:12:12.626Z,20.72
2022-10-17T12:14:47.107Z,20.86
2022-10-17T12:17:49.155Z,20.77
2022-10-17T12:20:23.468Z,20.74
2022-10-17T12:22:50.039Z,20.79
2022-10-17T12:25:19.674Z,20.84
2022-10-17T12:27:47.553Z,20.75
2022-10-17T12:30:26.553Z,20.76
2022-10-17T12:33:05.646Z,20.64
2022-10-17T12:35:33.620Z,20.42
2022-10-17T12:38:03.880Z,20.32
2022-10-17T12:40:48.998Z,20.15
2022-10-17T12:43:15.673Z,20.11
2022-10-17T12:45:57.513Z,20.10
2022-10-17T12:48:38.494Z,20.35
2022-10-17T12:54:11.985Z,20.44
2022-10-17T12:56:42.013Z,20.55
2022-10-17T12:59:09.840Z,20.65
2022-10-17T13:01:39.999Z,20.72
2022-10-17T13:04:08.724Z,20.79
2022-10-17T13:06:57.101Z,20.74
2022-10-17T13:09:30.563Z,20.69
2022-10-17T13:12:07.288Z,20.79
2022-10-17T13:14:33.991Z,20.72
2022-10-17T13:17:08.036Z,20.58
2022-10-17T13:19:42.266Z,20.62
2022-10-17T13:22:49.322Z,20.48
2022-10-17T13:25:16.224Z,20.58
2022-10-17T13:27:42.684Z,20.45
2022-10-17T13:30:22.153Z,20.41
2022-10-17T13:32:50.790Z,20.48
2022-10-17T13:35:31.723Z,20.41
2022-10-17T13:38:08.609Z,20.44
2022-10-17T13:40:49.713Z,20.58
2022-10-17T13:43:20.749Z,20.48
2022-10-17T13:45:50.416Z,20.58
2022-10-17T13:48:42.813Z,20.58
2022-10-17T13:51:11.350Z,20.58
2022-10-17T13:53:39.937Z,20.61
2022-10-17T13:56:27.921Z,20.45
2022-10-17T13:59:07.801Z,20.38
2022-10-17T14:01:37.013Z,20.37
2022-10-17T14:04:09.315Z,20.22
2022-10-17T14:06:47.668Z,20.29
2022-10-17T14:09:25.552Z,20.26
2022-10-17T14:12:01.432Z,20.14
2022-10-17T14:14:27.850Z,20.20
2022-10-17T14:16:54.263Z,20.20
2022-10-17T14:19:20.861Z,20.04
2022-10-17T14:21:49.475Z,20.01
2022-10-17T14:24:29.304Z,19.93
2022-10-17T14:26:59.563Z,19.92
2022-10-17T14:29:29.902Z,20.02
2022-10-17T14:31:57.139Z,19.96
2022-10-17T14:34:24.645Z,19.75
2022-10-17T14:36:55.869Z,19.83
2022-10-17T14:39:26.303Z,19.68
2022-10-17T14:41:52.624Z,19.82
2022-10-17T14:44:20.591Z,19.80
2022-10-17T14:46:50.545Z,19.81
2022-10-17T14:49:24.034Z,19.87
2022-10-17T14:52:13.409Z,19.83
2022-10-17T14:54:44.291Z,19.80
2022-10-17T14:57:33.604Z,19.88
2022-10-17T14:59:59.959Z,19.58
2022-10-17T15:02:28.127Z,19.57
2022-10-17T15:04:54.761Z,19.51
2022-10-17T15:07:21.279Z,19.36
2022-10-17T15:09:48.253Z,19.24
2022-10-17T15:12:15.690Z,19.21
2022-10-17T15:14:43.240Z,19.12
2022-10-17T15:17:13.617Z,19.10
2022-10-17T15:19:39.952Z,19.02
2022-10-17T15:22:06.484Z,19.08
2022-10-17T15:24:32.842Z,19.00
2022-10-17T15:26:59.166Z,19.04
2022-10-17T15:29:25.752Z,18.88
2022-10-17T15:31:52.072Z,19.06
2022-10-17T15:34:18.428Z,18.75
2022-10-17T15:36:48.685Z,18.54
2022-10-17T15:39:15.016Z,18.60
2022-10-17T15:41:41.353Z,18.60
2022-10-17T15:44:07.707Z,18.64
2022-10-17T15:46:34.195Z,18.46
2022-10-17T15:49:09.821Z,18.33
2022-10-17T15:51:36.159Z,18.45
2022-10-17T15:54:02.565Z,18.38
2022-10-17T15:56:29.780Z,18.40
2022-10-17T15:58:56.125Z,18.19
2022-10-17T16:01:23.595Z,18.15
2022-10-17T16:03:50.693Z,18.07
2022-10-17T16:06:17.929Z,18.02
2022-10-17T16:08:44.506Z,17.87
2022-10-17T16:11:17.983Z,18.15
2022-10-17T16:13:45.669Z,17.93
2022-10-17T16:16:11.995Z,17.90
2022-10-17T16:18:38.400Z,17.76
2022-10-17T16:21:04.717Z,17.79
2022-10-17T16:23:31.051Z,17.81
2022-10-17T16:25:57.402Z,17.60
2022-10-17T16:28:23.781Z,17.67
2022-10-17T16:30:50.160Z,17.73
2022-10-17T16:33:16.478Z,17.68
2022-10-17T16:35:42.895Z,17.80
2022-10-17T16:38:09.268Z,17.86
2022-10-17T16:40:35.613Z,17.78
2022-10-17T16:43:01.934Z,17.77
2022-10-17T16:45:28.335Z,17.70
2022-10-17T16:47:54.740Z,17.67
2022-10-17T16:50:21.108Z,17.70
2022-10-17T16:52:47.425Z,17.79
2022-10-17T16:55:18.714Z,17.73
2022-10-17T17:00:16.581Z,18.13
2022-10-17T17:02:42.968Z,18.04
2022-10-17T17:05:09.520Z,17.92
2022-10-17T17:07:35.945Z,17.93
2022-10-17T17:10:02.433Z,17.92
2022-10-17T17:12:28.761Z,17.83
2022-10-17T17:14:55.124Z,17.83
2022-10-17T17:17:30.656Z,17.85
2022-10-17T17:20:07.911Z,17.82
2022-10-17T17:22:34.499Z,17.91
2022-10-17T17:25:00.810Z,17.83
2022-10-17T17:27:28.126Z,17.91
2022-10-17T17:29:54.636Z,17.90
2022-10-17T17:32:21.018Z,17.92
2022-10-17T17:34:47.727Z,17.91
2022-10-17T17:37:14.103Z,17.81
2022-10-17T17:39:40.718Z,17.76
2022-10-17T17:42:07.043Z,17.70
2022-10-17T17:44:33.420Z,17.47
2022-10-17T17:46:59.809Z,17.39
2022-10-17T17:49:26.239Z,17.42
2022-10-17T17:51:52.624Z,17.30
2022-10-17T17:54:19.036Z,17.26
2022-10-17T17:56:45.381Z,17.28
2022-10-17T17:59:12.352Z,17.27
2022-10-17T18:01:39.262Z,17.25
2022-10-17T18:04:06.834Z,17.24
2022-10-17T18:06:33.349Z,17.20
2022-10-17T18:08:59.836Z,17.18
2022-10-17T18:11:27.086Z,17.07
2022-10-17T18:13:56.338Z,16.93
2022-10-17T18:16:22.669Z,17.06
2022-10-17T18:18:49.041Z,17.03
2022-10-17T18:21:15.615Z,16.85
2022-10-17T18:23:42.407Z,16.86
2022-10-17T18:26:09.287Z,16.85
2022-10-17T18:28:36.222Z,16.74
2022-10-17T18:31:09.778Z,16.61
2022-10-17T18:33:36.190Z,16.61
2022-10-17T18:36:06.949Z,16.54
2022-10-17T18:38:33.635Z,16.53
2022-10-17T18:41:16.038Z,16.51
2022-10-17T18:43:42.683Z,16.51
2022-10-17T18:46:12.442Z,16.51
2022-10-17T18:48:41.631Z,16.32
2022-10-17T18:51:08.052Z,16.32
2022-10-17T18:53:34.407Z,16.31
2022-10-17T18:56:01.354Z,16.47
2022-10-17T18:58:27.668Z,16.43
2022-10-17T19:00:53.994Z,16.49
2022-10-17T19:03:20.368Z,16.42
2022-10-17T19:05:47.473Z,16.42
2022-10-17T19:08:14.442Z,16.41
2022-10-17T19:10:41.623Z,16.45
2022-10-17T19:13:09.158Z,16.44
2022-10-17T19:15:35.547Z,16.50
2022-10-17T19:18:01.904Z,16.48
2022-10-17T19:20:28.318Z,16.45
2022-10-17T19:22:54.698Z,16.42
2022-10-17T19:25:21.071Z,16.48
2022-10-17T19:27:47.636Z,16.45
2022-10-17T19:30:14.038Z,16.44
2022-10-17T19:32:40.701Z,16.45
2022-10-17T19:35:07.299Z,16.55
2022-10-17T19:37:34.292Z,16.56
2022-10-17T19:40:00.693Z,16.54
2022-10-17T19:42:27.010Z,16.53
2022-10-17T19:44:53.352Z,16.46
2022-10-17T19:47:19.685Z,16.55
2022-10-17T19:49:49.923Z,16.51
2022-10-17T19:52:16.491Z,16.42
2022-10-17T19:54:42.888Z,16.45
2022-10-17T19:57:10.527Z,16.49
2022-10-17T19:59:37.075Z,16.49
2022-10-17T20:02:03.562Z,16.45
2022-10-17T20:04:30.010Z,16.45
2022-10-17T20:06:59.731Z,16.47
2022-10-17T20:09:26.436Z,16.40
2022-10-17T20:11:52.751Z,16.51
2022-10-17T20:14:19.078Z,16.42
2022-10-17T20:16:50.020Z,16.34
2022-10-17T20:19:16.383Z,16.38
2022-10-17T20:21:42.893Z,16.32
2022-10-17T20:24:09.858Z,16.34
2022-10-17T20:26:38.765Z,16.33
2022-10-17T20:29:08.745Z,16.33
2022-10-17T20:31:35.271Z,16.46
2022-10-17T20:34:01.670Z,16.43
2022-10-17T20:36:28.003Z,16.43
2022-10-17T20:38:55.058Z,16.41
2022-10-17T20:41:21.495Z,16.40
2022-10-17T20:43:49.592Z,16.38
2022-10-17T20:46:29.464Z,16.41
2022-10-17T20:49:01.778Z,16.41
2022-10-17T20:51:28.172Z,16.36
2022-10-17T20:53:54.495Z,16.34
2022-10-17T20:56:21.736Z,16.34
2022-10-17T20:58:54.815Z,16.42
2022-10-17T21:01:21.270Z,16.42
2022-10-17T21:03:47.806Z,16.37
2022-10-17T21:06:14.245Z,16.37
2022-10-17T21:08:40.587Z,16.48
2022-10-17T21:11:26.154Z,16.45
2022-10-17T21:13:56.567Z,16.40
2022-10-17T21:16:23.041Z,16.36
2022-10-17T21:18:49.466Z,16.26
2022-10-17T21:21:19.872Z,16.24
2022-10-17T21:23:46.729Z,16.22
2022-10-17T21:26:13.049Z,16.36
2022-10-17T21:28:39.753Z,16.23
2022-10-17T21:31:22.466Z,16.21
2022-10-17T21:33:49.507Z,16.16
2022-10-17T21:36:16.791Z,16.24
2022-10-17T21:38:43.669Z,16.22
2022-10-17T21:41:10.306Z,16.17
2022-10-17T21:43:36.756Z,16.23
2022-10-17T21:46:03.932Z,16.37
2022-10-17T21:48:30.388Z,16.33
2022-10-17T21:50:57.807Z,16.20
2022-10-17T21:53:24.356Z,16.21
2022-10-17T21:55:50.698Z,16.21
2022-10-17T21:58:17.007Z,16.25
2022-10-17T22:00:43.323Z,16.16
2022-10-17T22:03:12.638Z,16.09
2022-10-17T22:05:39.013Z,16.17
2022-10-17T22:08:05.487Z,16.21
2022-10-17T22:10:31.793Z,16.10
2022-10-17T22:12:58.116Z,16.02
2022-10-17T22:15:24.447Z,15.98
2022-10-17T22:17:50.770Z,16.05
2022-10-17T22:20:17.146Z,16.07
2022-10-17T22:22:43.457Z,16.10
2022-10-17T22:25:09.826Z,16.19
2022-10-17T22:27:36.142Z,16.16
2022-10-17T22:30:02.471Z,16.13
2022-10-17T22:32:28.842Z,16.04
2022-10-17T22:34:55.175Z,16.03
2022-10-17T22:37:21.565Z,15.99
2022-10-17T22:39:47.888Z,15.90
2022-10-17T22:42:14.247Z,15.88
2022-10-17T22:44:40.630Z,15.86
2022-10-17T22:47:06.933Z,15.86
2022-10-17T22:49:33.532Z,15.92
2022-10-17T22:51:59.891Z,15.83
2022-10-17T22:54:26.250Z,15.79
2022-10-17T22:56:52.579Z,15.92
2022-10-17T22:59:18.907Z,15.75
2022-10-17T23:01:45.344Z,15.78
2022-10-17T23:04:11.709Z,15.87
2022-10-17T23:06:38.031Z,15.76
2022-10-17T23:09:04.370Z,15.66
2022-10-17T23:11:30.681Z,15.71
2022-10-17T23:13:57.028Z,15.73
2022-10-17T23:16:23.355Z,15.75
2022-10-17T23:18:49.684Z,15.72
2022-10-17T23:21:16.013Z,15.82
2022-10-17T23:23:42.353Z,15.89
2022-10-17T23:26:09.912Z,15.80
2022-10-17T23:28:36.611Z,15.74
2022-10-17T23:31:13.031Z,15.75
2022-10-17T23:33:41.225Z,15.65
2022-10-17T23:36:08.628Z,15.62
2022-10-17T23:38:34.941Z,15.59
2022-10-17T23:41:01.276Z,15.56
2022-10-17T23:43:28.222Z,15.60
2022-10-17T23:45:54.571Z,15.59
2022-10-17T23:48:20.903Z,15.61
2022-10-17T23:50:47.226Z,15.70
2022-10-17T23:53:13.550Z,15.57
2022-10-17T23:55:39.887Z,15.60
2022-10-17T23:58:06.194Z,15.57
